sensor_id;sensor_type;location;lat;lon;timestamp;temperature;humidity
25906;DHT22;13713;52.552;13.204;2023-04-25T00:02:10;18.30;58.30
25906;DHT22;13713;52.552;13.204;2023-04-25T00:04:36;18.30;58.20
25906;DHT22;13713;52.552;13.204;2023-04-25T00:07:03;18.30;58.30
25906;DHT22;13713;52.552;13.204;2023-04-25T00:09:29;18.30;58.20
25906;DHT22;13713;52.552;13.204;2023-04-25T00:11:55;18.30;58.30
25906;DHT22;13713;52.552;13.204;2023-04-25T00:14:21;18.20;58.20
25906;DHT22;13713;52.552;13.204;2023-04-25T00:16:47;18.30;58.30
25906;DHT22;13713;52.552;13.204;2023-04-25T00:19:13;18.20;58.20
25906;DHT22;13713;52.552;13.204;2023-04-25T00:21:39;18.20;58.20
25906;DHT22;13713;52.552;13.204;2023-04-25T00:24:06;18.20;58.20
25906;DHT22;13713;52.552;13.204;2023-04-25T00:26:34;18.20;58.20
25906;DHT22;13713;52.552;13.204;2023-04-25T00:29:01;18.30;58.30
25906;DHT22;13713;52.552;13.204;2023-04-25T00:31:27;18.20;58.20
25906;DHT22;13713;52.552;13.204;2023-04-25T00:33:54;18.20;58.20
25906;DHT22;13713;52.552;13.204;2023-04-25T00:36:20;18.20;58.20
25906;DHT22;13713;52.552;13.204;2023-04-25T00:38:46;18.20;58.20
25906;DHT22;13713;52.552;13.204;2023-04-25T00:41:11;18.20;58.20
25906;DHT22;13713;52.552;13.204;2023-04-25T00:43:37;18.20;58.20
25906;DHT22;13713;52.552;13.204;2023-04-25T00:46:04;18.20;58.20
25906;DHT22;13713;52.552;13.204;2023-04-25T00:48:30;18.20;58.20
25906;DHT22;13713;52.552;13.204;2023-04-25T00:50:58;18.20;58.20
25906;DHT22;13713;52.552;13.204;2023-04-25T00:53:25;18.20;58.20
25906;DHT22;13713;52.552;13.204;2023-04-25T00:55:51;18.20;58.20
25906;DHT22;13713;52.552;13.204;2023-04-25T00:58:18;18.10;58.20
25906;DHT22;13713;52.552;13.204;2023-04-25T01:00:45;18.10;58.20
25906;DHT22;13713;52.552;13.204;2023-04-25T01:03:13;18.20;58.20
25906;DHT22;13713;52.552;13.204;2023-04-25T01:05:40;18.10;58.20
25906;DHT22;13713;52.552;13.204;2023-04-25T01:08:07;18.10;58.20
25906;DHT22;13713;52.552;13.204;2023-04-25T01:10:32;18.20;58.20
25906;DHT22;13713;52.552;13.204;2023-04-25T01:12:58;18.10;58.20
25906;DHT22;13713;52.552;13.204;2023-04-25T01:15:24;18.20;58.20
25906;DHT22;13713;52.552;13.204;2023-04-25T01:17:51;18.20;58.20
25906;DHT22;13713;52.552;13.204;2023-04-25T01:20:21;18.10;58.10
25906;DHT22;13713;52.552;13.204;2023-04-25T01:22:49;18.20;58.20
25906;DHT22;13713;52.552;13.204;2023-04-25T01:25:15;18.10;58.20
25906;DHT22;13713;52.552;13.204;2023-04-25T01:27:41;18.10;58.10
25906;DHT22;13713;52.552;13.204;2023-04-25T01:30:07;18.10;58.20
25906;DHT22;13713;52.552;13.204;2023-04-25T01:32:34;18.10;58.10
25906;DHT22;13713;52.552;13.204;2023-04-25T01:35:08;18.10;58.10
25906;DHT22;13713;52.552;13.204;2023-04-25T01:37:42;18.10;58.10
25906;DHT22;13713;52.552;13.204;2023-04-25T01:40:10;18.10;58.10
25906;DHT22;13713;52.552;13.204;2023-04-25T01:42:41;18.10;58.10
25906;DHT22;13713;52.552;13.204;2023-04-25T01:45:08;18.10;58.00
25906;DHT22;13713;52.552;13.204;2023-04-25T01:47:34;18.10;58.10
25906;DHT22;13713;52.552;13.204;2023-04-25T01:50:04;18.10;58.00
25906;DHT22;13713;52.552;13.204;2023-04-25T01:52:31;18.10;58.00
25906;DHT22;13713;52.552;13.204;2023-04-25T01:54:57;18.10;58.00
25906;DHT22;13713;52.552;13.204;2023-04-25T01:57:26;18.10;58.00
25906;DHT22;13713;52.552;13.204;2023-04-25T02:00:00;18.10;58.00
25906;DHT22;13713;52.552;13.204;2023-04-25T02:02:38;18.10;58.00
25906;DHT22;13713;52.552;13.204;2023-04-25T02:05:06;18.10;58.00
25906;DHT22;13713;52.552;13.204;2023-04-25T02:07:34;18.10;58.00
25906;DHT22;13713;52.552;13.204;2023-04-25T02:10:01;18.10;58.00
25906;DHT22;13713;52.552;13.204;2023-04-25T02:12:30;18.10;58.00
25906;DHT22;13713;52.552;13.204;2023-04-25T02:15:15;18.10;58.00
25906;DHT22;13713;52.552;13.204;2023-04-25T02:17:47;18.10;58.00
25906;DHT22;13713;52.552;13.204;2023-04-25T02:20:14;18.00;57.90
25906;DHT22;13713;52.552;13.204;2023-04-25T02:22:41;18.10;58.00
25906;DHT22;13713;52.552;13.204;2023-04-25T02:25:09;18.00;57.90
25906;DHT22;13713;52.552;13.204;2023-04-25T02:27:36;18.00;57.90
25906;DHT22;13713;52.552;13.204;2023-04-25T02:30:01;18.00;57.90
25906;DHT22;13713;52.552;13.204;2023-04-25T02:32:28;18.00;57.90
25906;DHT22;13713;52.552;13.204;2023-04-25T02:34:53;18.00;57.90
25906;DHT22;13713;52.552;13.204;2023-04-25T02:37:19;18.00;57.90
25906;DHT22;13713;52.552;13.204;2023-04-25T02:39:45;18.00;57.90
25906;DHT22;13713;52.552;13.204;2023-04-25T02:42:12;18.00;57.90
25906;DHT22;13713;52.552;13.204;2023-04-25T02:44:38;18.00;57.90
25906;DHT22;13713;52.552;13.204;2023-04-25T02:47:04;18.00;57.90
25906;DHT22;13713;52.552;13.204;2023-04-25T02:49:30;18.00;57.90
25906;DHT22;13713;52.552;13.204;2023-04-25T02:51:56;18.00;57.90
25906;DHT22;13713;52.552;13.204;2023-04-25T02:54:21;18.00;57.90
25906;DHT22;13713;52.552;13.204;2023-04-25T02:56:48;18.00;57.90
25906;DHT22;13713;52.552;13.204;2023-04-25T02:59:19;18.00;57.90
25906;DHT22;13713;52.552;13.204;2023-04-25T03:01:45;18.00;57.90
25906;DHT22;13713;52.552;13.204;2023-04-25T03:04:10;18.00;57.90
25906;DHT22;13713;52.552;13.204;2023-04-25T03:06:36;18.00;57.90
25906;DHT22;13713;52.552;13.204;2023-04-25T03:09:02;18.00;57.80
25906;DHT22;13713;52.552;13.204;2023-04-25T03:11:29;18.00;57.90
25906;DHT22;13713;52.552;13.204;2023-04-25T03:13:55;18.00;57.90
25906;DHT22;13713;52.552;13.204;2023-04-25T03:16:22;18.00;57.90
25906;DHT22;13713;52.552;13.204;2023-04-25T03:18:49;18.00;57.90
25906;DHT22;13713;52.552;13.204;2023-04-25T03:21:16;18.00;57.90
25906;DHT22;13713;52.552;13.204;2023-04-25T03:23:42;18.00;57.90
25906;DHT22;13713;52.552;13.204;2023-04-25T03:26:08;17.90;57.90
25906;DHT22;13713;52.552;13.204;2023-04-25T03:28:34;18.00;58.00
25906;DHT22;13713;52.552;13.204;2023-04-25T03:31:00;17.90;57.90
25906;DHT22;13713;52.552;13.204;2023-04-25T03:33:25;18.00;58.00
25906;DHT22;13713;52.552;13.204;2023-04-25T03:35:51;18.00;58.00
25906;DHT22;13713;52.552;13.204;2023-04-25T03:38:17;18.00;58.00
25906;DHT22;13713;52.552;13.204;2023-04-25T03:40:44;18.00;58.00
25906;DHT22;13713;52.552;13.204;2023-04-25T03:43:19;18.00;58.00
25906;DHT22;13713;52.552;13.204;2023-04-25T03:45:53;18.00;58.00
25906;DHT22;13713;52.552;13.204;2023-04-25T03:48:21;18.00;58.00
25906;DHT22;13713;52.552;13.204;2023-04-25T03:50:47;18.00;58.00
25906;DHT22;13713;52.552;13.204;2023-04-25T03:53:13;18.00;58.00
25906;DHT22;13713;52.552;13.204;2023-04-25T03:55:59;18.00;58.00
25906;DHT22;13713;52.552;13.204;2023-04-25T03:58:24;18.00;58.00
25906;DHT22;13713;52.552;13.204;2023-04-25T04:00:50;18.00;58.00
25906;DHT22;13713;52.552;13.204;2023-04-25T04:03:16;18.00;57.90
25906;DHT22;13713;52.552;13.204;2023-04-25T04:05:42;18.00;57.90
25906;DHT22;13713;52.552;13.204;2023-04-25T04:08:08;18.00;57.90
25906;DHT22;13713;52.552;13.204;2023-04-25T04:10:36;18.00;57.90
25906;DHT22;13713;52.552;13.204;2023-04-25T04:13:02;18.00;57.90
25906;DHT22;13713;52.552;13.204;2023-04-25T04:15:27;18.00;57.90
25906;DHT22;13713;52.552;13.204;2023-04-25T04:17:54;18.00;57.90
25906;DHT22;13713;52.552;13.204;2023-04-25T04:20:20;18.00;57.90
25906;DHT22;13713;52.552;13.204;2023-04-25T04:22:46;18.00;57.90
25906;DHT22;13713;52.552;13.204;2023-04-25T04:25:13;18.00;57.90
25906;DHT22;13713;52.552;13.204;2023-04-25T04:27:59;18.00;57.90
25906;DHT22;13713;52.552;13.204;2023-04-25T04:30:49;18.00;57.90
25906;DHT22;13713;52.552;13.204;2023-04-25T04:33:17;18.00;57.90
25906;DHT22;13713;52.552;13.204;2023-04-25T04:35:46;18.00;57.80
25906;DHT22;13713;52.552;13.204;2023-04-25T04:38:13;18.00;57.80
25906;DHT22;13713;52.552;13.204;2023-04-25T04:40:41;18.00;57.80
25906;DHT22;13713;52.552;13.204;2023-04-25T04:43:31;18.10;57.90
25906;DHT22;13713;52.552;13.204;2023-04-25T04:46:07;18.10;57.80
25906;DHT22;13713;52.552;13.204;2023-04-25T04:48:51;18.10;57.90
25906;DHT22;13713;52.552;13.204;2023-04-25T04:51:41;18.10;57.80
25906;DHT22;13713;52.552;13.204;2023-04-25T04:54:30;18.10;57.80
25906;DHT22;13713;52.552;13.204;2023-04-25T04:57:14;18.10;57.80
25906;DHT22;13713;52.552;13.204;2023-04-25T04:59:53;18.10;57.80
25906;DHT22;13713;52.552;13.204;2023-04-25T05:02:38;18.10;57.80
25906;DHT22;13713;52.552;13.204;2023-04-25T05:05:36;18.10;57.80
25906;DHT22;13713;52.552;13.204;2023-04-25T05:08:23;18.10;57.80
25906;DHT22;13713;52.552;13.204;2023-04-25T05:11:22;18.20;58.00
25906;DHT22;13713;52.552;13.204;2023-04-25T05:14:09;18.10;57.80
25906;DHT22;13713;52.552;13.204;2023-04-25T05:16:43;18.20;57.80
25906;DHT22;13713;52.552;13.204;2023-04-25T05:19:44;18.20;57.90
25906;DHT22;13713;52.552;13.204;2023-04-25T05:22:28;18.20;57.90
25906;DHT22;13713;52.552;13.204;2023-04-25T05:25:18;18.20;57.90
25906;DHT22;13713;52.552;13.204;2023-04-25T05:27:59;18.20;57.90
25906;DHT22;13713;52.552;13.204;2023-04-25T05:30:43;18.20;58.00
25906;DHT22;13713;52.552;13.204;2023-04-25T05:33:21;18.20;58.10
25906;DHT22;13713;52.552;13.204;2023-04-25T05:35:47;18.20;58.10
25906;DHT22;13713;52.552;13.204;2023-04-25T05:38:13;18.20;58.10
25906;DHT22;13713;52.552;13.204;2023-04-25T05:40:57;18.20;58.20
25906;DHT22;13713;52.552;13.204;2023-04-25T05:43:38;18.20;58.20
25906;DHT22;13713;52.552;13.204;2023-04-25T05:46:20;18.20;58.30
25906;DHT22;13713;52.552;13.204;2023-04-25T05:49:25;18.20;58.30
25906;DHT22;13713;52.552;13.204;2023-04-25T05:52:03;18.20;58.20
25906;DHT22;13713;52.552;13.204;2023-04-25T05:54:49;18.20;58.30
25906;DHT22;13713;52.552;13.204;2023-04-25T05:57:25;18.30;58.40
25906;DHT22;13713;52.552;13.204;2023-04-25T05:59:53;18.20;58.40
25906;DHT22;13713;52.552;13.204;2023-04-25T06:02:20;18.20;58.40
25906;DHT22;13713;52.552;13.204;2023-04-25T06:04:49;18.20;58.30
25906;DHT22;13713;52.552;13.204;2023-04-25T06:07:15;18.20;58.00
25906;DHT22;13713;52.552;13.204;2023-04-25T06:09:41;18.20;57.70
25906;DHT22;13713;52.552;13.204;2023-04-25T06:12:08;18.10;57.50
25906;DHT22;13713;52.552;13.204;2023-04-25T06:14:34;18.10;57.60
25906;DHT22;13713;52.552;13.204;2023-04-25T06:17:00;18.10;57.60
25906;DHT22;13713;52.552;13.204;2023-04-25T06:19:35;18.10;57.60
25906;DHT22;13713;52.552;13.204;2023-04-25T06:22:02;18.10;57.60
25906;DHT22;13713;52.552;13.204;2023-04-25T06:24:28;18.10;57.60
25906;DHT22;13713;52.552;13.204;2023-04-25T06:26:54;18.10;57.60
25906;DHT22;13713;52.552;13.204;2023-04-25T06:29:20;18.20;57.70
25906;DHT22;13713;52.552;13.204;2023-04-25T06:31:46;18.20;57.70
25906;DHT22;13713;52.552;13.204;2023-04-25T06:34:12;18.20;57.70
25906;DHT22;13713;52.552;13.204;2023-04-25T06:36:40;18.20;57.70
25906;DHT22;13713;52.552;13.204;2023-04-25T06:39:08;18.20;57.70
25906;DHT22;13713;52.552;13.204;2023-04-25T06:41:34;18.20;57.80
25906;DHT22;13713;52.552;13.204;2023-04-25T06:44:04;18.20;57.80
25906;DHT22;13713;52.552;13.204;2023-04-25T06:46:38;18.20;57.80
25906;DHT22;13713;52.552;13.204;2023-04-25T06:49:04;18.30;57.90
25906;DHT22;13713;52.552;13.204;2023-04-25T06:51:30;18.10;57.80
25906;DHT22;13713;52.552;13.204;2023-04-25T06:53:57;18.30;58.00
25906;DHT22;13713;52.552;13.204;2023-04-25T06:56:32;18.30;58.00
25906;DHT22;13713;52.552;13.204;2023-04-25T06:59:13;18.30;58.00
25906;DHT22;13713;52.552;13.204;2023-04-25T07:01:40;18.30;58.10
25906;DHT22;13713;52.552;13.204;2023-04-25T07:04:13;18.30;58.10
25906;DHT22;13713;52.552;13.204;2023-04-25T07:06:44;18.30;58.10
25906;DHT22;13713;52.552;13.204;2023-04-25T07:09:12;18.30;58.10
25906;DHT22;13713;52.552;13.204;2023-04-25T07:11:39;18.40;58.20
25906;DHT22;13713;52.552;13.204;2023-04-25T07:14:05;18.40;58.20
25906;DHT22;13713;52.552;13.204;2023-04-25T07:16:31;18.40;58.90
25906;DHT22;13713;52.552;13.204;2023-04-25T07:18:57;18.40;58.30
25906;DHT22;13713;52.552;13.204;2023-04-25T07:21:24;18.40;58.30
25906;DHT22;13713;52.552;13.204;2023-04-25T07:23:52;18.40;58.40
25906;DHT22;13713;52.552;13.204;2023-04-25T07:26:23;18.40;58.40
25906;DHT22;13713;52.552;13.204;2023-04-25T07:29:16;18.40;58.40
25906;DHT22;13713;52.552;13.204;2023-04-25T07:31:42;18.50;58.50
25906;DHT22;13713;52.552;13.204;2023-04-25T07:34:08;18.50;58.50
25906;DHT22;13713;52.552;13.204;2023-04-25T07:36:34;18.50;58.50
25906;DHT22;13713;52.552;13.204;2023-04-25T07:39:00;18.50;58.50
25906;DHT22;13713;52.552;13.204;2023-04-25T07:41:26;18.50;58.50
25906;DHT22;13713;52.552;13.204;2023-04-25T07:43:52;18.60;58.60
25906;DHT22;13713;52.552;13.204;2023-04-25T07:46:19;18.60;58.60
25906;DHT22;13713;52.552;13.204;2023-04-25T07:48:45;18.40;58.50
25906;DHT22;13713;52.552;13.204;2023-04-25T07:51:10;18.60;58.60
25906;DHT22;13713;52.552;13.204;2023-04-25T07:53:37;18.60;58.70
25906;DHT22;13713;52.552;13.204;2023-04-25T07:56:07;18.60;58.70
25906;DHT22;13713;52.552;13.204;2023-04-25T07:58:36;18.70;58.70
25906;DHT22;13713;52.552;13.204;2023-04-25T08:01:04;18.60;58.70
25906;DHT22;13713;52.552;13.204;2023-04-25T08:03:50;18.70;58.70
25906;DHT22;13713;52.552;13.204;2023-04-25T08:06:23;18.70;58.80
25906;DHT22;13713;52.552;13.204;2023-04-25T08:08:57;18.70;58.80
25906;DHT22;13713;52.552;13.204;2023-04-25T08:11:30;18.70;58.80
25906;DHT22;13713;52.552;13.204;2023-04-25T08:13:56;18.70;58.90
25906;DHT22;13713;52.552;13.204;2023-04-25T08:16:22;18.70;58.90
25906;DHT22;13713;52.552;13.204;2023-04-25T08:18:49;18.70;58.90
25906;DHT22;13713;52.552;13.204;2023-04-25T08:21:15;18.70;58.90
25906;DHT22;13713;52.552;13.204;2023-04-25T08:23:41;18.80;59.60
25906;DHT22;13713;52.552;13.204;2023-04-25T08:26:11;18.80;59.00
25906;DHT22;13713;52.552;13.204;2023-04-25T08:28:38;18.70;59.00
25906;DHT22;13713;52.552;13.204;2023-04-25T08:31:04;18.80;59.00
25906;DHT22;13713;52.552;13.204;2023-04-25T08:33:38;18.80;59.00
25906;DHT22;13713;52.552;13.204;2023-04-25T08:36:33;18.80;58.90
25906;DHT22;13713;52.552;13.204;2023-04-25T08:38:59;18.80;58.90
25906;DHT22;13713;52.552;13.204;2023-04-25T08:41:25;18.80;58.90
25906;DHT22;13713;52.552;13.204;2023-04-25T08:43:53;18.90;58.90
25906;DHT22;13713;52.552;13.204;2023-04-25T08:46:19;18.90;58.90
25906;DHT22;13713;52.552;13.204;2023-04-25T08:49:02;18.90;58.80
25906;DHT22;13713;52.552;13.204;2023-04-25T08:51:31;18.90;58.70
25906;DHT22;13713;52.552;13.204;2023-04-25T08:54:10;18.90;58.70
25906;DHT22;13713;52.552;13.204;2023-04-25T08:56:38;18.90;58.60
25906;DHT22;13713;52.552;13.204;2023-04-25T08:59:05;18.90;58.60
25906;DHT22;13713;52.552;13.204;2023-04-25T09:01:37;18.90;58.60
25906;DHT22;13713;52.552;13.204;2023-04-25T09:04:02;18.90;58.60
25906;DHT22;13713;52.552;13.204;2023-04-25T09:06:29;19.00;58.70
25906;DHT22;13713;52.552;13.204;2023-04-25T09:09:02;19.00;58.60
25906;DHT22;13713;52.552;13.204;2023-04-25T09:11:29;19.00;58.70
25906;DHT22;13713;52.552;13.204;2023-04-25T09:14:20;19.00;58.60
25906;DHT22;13713;52.552;13.204;2023-04-25T09:17:09;19.10;58.70
25906;DHT22;13713;52.552;13.204;2023-04-25T09:19:50;19.10;58.70
25906;DHT22;13713;52.552;13.204;2023-04-25T09:22:29;19.10;58.70
25906;DHT22;13713;52.552;13.204;2023-04-25T09:24:55;19.10;58.70
25906;DHT22;13713;52.552;13.204;2023-04-25T09:27:24;19.10;58.80
25906;DHT22;13713;52.552;13.204;2023-04-25T09:30:04;19.10;58.70
25906;DHT22;13713;52.552;13.204;2023-04-25T09:32:48;19.10;58.80
25906;DHT22;13713;52.552;13.204;2023-04-25T09:35:24;19.20;58.90
25906;DHT22;13713;52.552;13.204;2023-04-25T09:37:51;19.20;58.90
25906;DHT22;13713;52.552;13.204;2023-04-25T09:40:42;19.20;58.90
25906;DHT22;13713;52.552;13.204;2023-04-25T09:43:24;19.20;58.90
25906;DHT22;13713;52.552;13.204;2023-04-25T09:45:54;19.30;58.90
25906;DHT22;13713;52.552;13.204;2023-04-25T09:48:24;19.30;58.90
25906;DHT22;13713;52.552;13.204;2023-04-25T09:51:10;19.30;58.90
25906;DHT22;13713;52.552;13.204;2023-04-25T09:53:38;19.30;58.70
25906;DHT22;13713;52.552;13.204;2023-04-25T09:56:32;19.30;58.40
25906;DHT22;13713;52.552;13.204;2023-04-25T09:59:01;19.30;58.20
25906;DHT22;13713;52.552;13.204;2023-04-25T10:01:28;19.20;58.00
25906;DHT22;13713;52.552;13.204;2023-04-25T10:04:05;19.20;57.60
25906;DHT22;13713;52.552;13.204;2023-04-25T10:06:57;19.10;57.30
25906;DHT22;13713;52.552;13.204;2023-04-25T10:09:26;19.10;56.70
25906;DHT22;13713;52.552;13.204;2023-04-25T10:11:52;19.10;56.50
25906;DHT22;13713;52.552;13.204;2023-04-25T10:14:18;19.00;55.90
25906;DHT22;13713;52.552;13.204;2023-04-25T10:16:45;18.90;55.70
25906;DHT22;13713;52.552;13.204;2023-04-25T10:19:12;18.90;55.30
25906;DHT22;13713;52.552;13.204;2023-04-25T10:21:48;18.90;55.40
25906;DHT22;13713;52.552;13.204;2023-04-25T10:24:15;18.90;55.20
25906;DHT22;13713;52.552;13.204;2023-04-25T10:26:41;18.90;55.20
25906;DHT22;13713;52.552;13.204;2023-04-25T10:29:09;18.90;55.10
25906;DHT22;13713;52.552;13.204;2023-04-25T10:31:45;19.00;55.10
25906;DHT22;13713;52.552;13.204;2023-04-25T10:34:10;19.00;55.10
25906;DHT22;13713;52.552;13.204;2023-04-25T10:36:36;18.90;55.00
25906;DHT22;13713;52.552;13.204;2023-04-25T10:39:06;19.00;55.00
25906;DHT22;13713;52.552;13.204;2023-04-25T10:41:52;19.00;55.00
25906;DHT22;13713;52.552;13.204;2023-04-25T10:44:18;19.10;55.00
25906;DHT22;13713;52.552;13.204;2023-04-25T10:46:44;19.10;55.00
25906;DHT22;13713;52.552;13.204;2023-04-25T10:49:11;19.10;55.00
25906;DHT22;13713;52.552;13.204;2023-04-25T10:52:14;19.10;55.00
25906;DHT22;13713;52.552;13.204;2023-04-25T10:54:41;19.10;55.10
25906;DHT22;13713;52.552;13.204;2023-04-25T10:57:07;19.10;55.10
25906;DHT22;13713;52.552;13.204;2023-04-25T10:59:33;19.20;55.10
25906;DHT22;13713;52.552;13.204;2023-04-25T11:01:59;19.20;55.10
25906;DHT22;13713;52.552;13.204;2023-04-25T11:04:29;19.10;55.00
25906;DHT22;13713;52.552;13.204;2023-04-25T11:09:37;19.30;55.10
25906;DHT22;13713;52.552;13.204;2023-04-25T11:12:04;19.20;55.00
25906;DHT22;13713;52.552;13.204;2023-04-25T11:14:30;19.30;55.10
25906;DHT22;13713;52.552;13.204;2023-04-25T11:17:00;19.30;55.10
25906;DHT22;13713;52.552;13.204;2023-04-25T11:19:27;19.30;55.10
25906;DHT22;13713;52.552;13.204;2023-04-25T11:22:00;19.30;55.10
25906;DHT22;13713;52.552;13.204;2023-04-25T11:24:34;19.40;55.20
25906;DHT22;13713;52.552;13.204;2023-04-25T11:27:01;19.30;55.20
25906;DHT22;13713;52.552;13.204;2023-04-25T11:29:29;19.30;55.20
25906;DHT22;13713;52.552;13.204;2023-04-25T11:31:55;19.40;55.30
25906;DHT22;13713;52.552;13.204;2023-04-25T11:34:23;19.40;55.30
25906;DHT22;13713;52.552;13.204;2023-04-25T11:36:50;19.40;55.30
25906;DHT22;13713;52.552;13.204;2023-04-25T11:39:18;19.40;55.30
25906;DHT22;13713;52.552;13.204;2023-04-25T11:41:44;19.50;55.30
25906;DHT22;13713;52.552;13.204;2023-04-25T11:44:10;19.50;55.40
25906;DHT22;13713;52.552;13.204;2023-04-25T11:46:36;19.50;55.40
25906;DHT22;13713;52.552;13.204;2023-04-25T11:49:03;19.50;55.40
25906;DHT22;13713;52.552;13.204;2023-04-25T11:51:30;19.50;55.40
25906;DHT22;13713;52.552;13.204;2023-04-25T11:53:57;19.50;55.40
25906;DHT22;13713;52.552;13.204;2023-04-25T11:56:22;19.50;55.40
25906;DHT22;13713;52.552;13.204;2023-04-25T11:58:59;19.60;55.50
25906;DHT22;13713;52.552;13.204;2023-04-25T12:03:52;19.60;55.50
25906;DHT22;13713;52.552;13.204;2023-04-25T12:06:18;19.60;55.50
25906;DHT22;13713;52.552;13.204;2023-04-25T12:09:03;19.70;55.50
25906;DHT22;13713;52.552;13.204;2023-04-25T12:11:32;19.60;55.40
25906;DHT22;13713;52.552;13.204;2023-04-25T12:14:02;19.70;55.50
25906;DHT22;13713;52.552;13.204;2023-04-25T12:16:29;19.70;55.40
25906;DHT22;13713;52.552;13.204;2023-04-25T12:18:56;19.70;55.40
25906;DHT22;13713;52.552;13.204;2023-04-25T12:21:23;19.70;55.40
25906;DHT22;13713;52.552;13.204;2023-04-25T12:23:48;19.70;54.90
25906;DHT22;13713;52.552;13.204;2023-04-25T12:26:14;19.60;54.40
25906;DHT22;13713;52.552;13.204;2023-04-25T12:28:40;19.60;54.00
25906;DHT22;13713;52.552;13.204;2023-04-25T12:31:10;19.60;53.60
25906;DHT22;13713;52.552;13.204;2023-04-25T12:33:37;19.40;52.30
25906;DHT22;13713;52.552;13.204;2023-04-25T12:36:05;19.30;51.90
25906;DHT22;13713;52.552;13.204;2023-04-25T12:38:39;19.20;51.20
25906;DHT22;13713;52.552;13.204;2023-04-25T12:41:05;19.20;51.70
25906;DHT22;13713;52.552;13.204;2023-04-25T12:43:30;19.20;51.50
25906;DHT22;13713;52.552;13.204;2023-04-25T12:45:56;19.10;51.30
25906;DHT22;13713;52.552;13.204;2023-04-25T12:48:23;19.00;51.20
25906;DHT22;13713;52.552;13.204;2023-04-25T12:50:50;19.00;50.80
25906;DHT22;13713;52.552;13.204;2023-04-25T12:53:20;19.00;51.00
25906;DHT22;13713;52.552;13.204;2023-04-25T12:55:46;19.00;51.00
25906;DHT22;13713;52.552;13.204;2023-04-25T12:58:13;19.00;51.00
25906;DHT22;13713;52.552;13.204;2023-04-25T13:00:38;19.00;51.10
25906;DHT22;13713;52.552;13.204;2023-04-25T13:03:04;19.00;50.80
25906;DHT22;13713;52.552;13.204;2023-04-25T13:05:30;19.00;50.90
25906;DHT22;13713;52.552;13.204;2023-04-25T13:07:56;19.10;50.90
25906;DHT22;13713;52.552;13.204;2023-04-25T13:10:22;19.00;51.10
25906;DHT22;13713;52.552;13.204;2023-04-25T13:12:48;19.10;51.10
25906;DHT22;13713;52.552;13.204;2023-04-25T13:15:13;19.20;51.30
25906;DHT22;13713;52.552;13.204;2023-04-25T13:17:41;19.20;51.20
25906;DHT22;13713;52.552;13.204;2023-04-25T13:20:08;19.20;51.30
25906;DHT22;13713;52.552;13.204;2023-04-25T13:22:38;19.20;51.40
25906;DHT22;13713;52.552;13.204;2023-04-25T13:25:06;19.30;51.50
25906;DHT22;13713;52.552;13.204;2023-04-25T13:27:32;19.30;51.50
25906;DHT22;13713;52.552;13.204;2023-04-25T13:30:00;19.30;51.60
25906;DHT22;13713;52.552;13.204;2023-04-25T13:32:27;19.40;51.70
25906;DHT22;13713;52.552;13.204;2023-04-25T13:34:53;19.30;51.70
25906;DHT22;13713;52.552;13.204;2023-04-25T13:37:19;19.40;51.80
25906;DHT22;13713;52.552;13.204;2023-04-25T13:39:45;19.40;51.90
25906;DHT22;13713;52.552;13.204;2023-04-25T13:42:11;19.50;52.00
25906;DHT22;13713;52.552;13.204;2023-04-25T13:44:36;19.50;52.00
25906;DHT22;13713;52.552;13.204;2023-04-25T13:47:02;19.50;52.10
25906;DHT22;13713;52.552;13.204;2023-04-25T13:49:28;19.50;52.10
25906;DHT22;13713;52.552;13.204;2023-04-25T13:51:54;19.50;52.20
25906;DHT22;13713;52.552;13.204;2023-04-25T13:54:20;19.50;52.20
25906;DHT22;13713;52.552;13.204;2023-04-25T13:56:46;19.50;52.20
25906;DHT22;13713;52.552;13.204;2023-04-25T13:59:11;19.60;52.30
25906;DHT22;13713;52.552;13.204;2023-04-25T14:01:37;19.60;52.40
25906;DHT22;13713;52.552;13.204;2023-04-25T14:04:03;19.60;52.40
25906;DHT22;13713;52.552;13.204;2023-04-25T14:06:30;19.60;52.50
25906;DHT22;13713;52.552;13.204;2023-04-25T14:08:56;19.60;52.50
25906;DHT22;13713;52.552;13.204;2023-04-25T14:11:22;19.70;52.60
25906;DHT22;13713;52.552;13.204;2023-04-25T14:13:48;19.70;52.70
25906;DHT22;13713;52.552;13.204;2023-04-25T14:16:15;19.70;52.80
25906;DHT22;13713;52.552;13.204;2023-04-25T14:18:41;19.70;52.80
25906;DHT22;13713;52.552;13.204;2023-04-25T14:21:06;19.70;52.80
25906;DHT22;13713;52.552;13.204;2023-04-25T14:23:32;19.70;52.90
25906;DHT22;13713;52.552;13.204;2023-04-25T14:25:58;19.80;53.00
25906;DHT22;13713;52.552;13.204;2023-04-25T14:28:23;19.80;53.10
25906;DHT22;13713;52.552;13.204;2023-04-25T14:30:49;19.80;53.20
25906;DHT22;13713;52.552;13.204;2023-04-25T14:33:15;19.80;53.20
25906;DHT22;13713;52.552;13.204;2023-04-25T14:35:40;19.80;53.20
25906;DHT22;13713;52.552;13.204;2023-04-25T14:38:06;19.80;53.30
25906;DHT22;13713;52.552;13.204;2023-04-25T14:40:33;19.90;53.60
25906;DHT22;13713;52.552;13.204;2023-04-25T14:42:58;19.80;53.50
25906;DHT22;13713;52.552;13.204;2023-04-25T14:45:24;19.90;53.60
25906;DHT22;13713;52.552;13.204;2023-04-25T14:47:50;19.80;53.50
25906;DHT22;13713;52.552;13.204;2023-04-25T14:50:17;19.80;53.50
25906;DHT22;13713;52.552;13.204;2023-04-25T14:52:44;19.80;53.50
25906;DHT22;13713;52.552;13.204;2023-04-25T14:55:10;19.80;53.50
25906;DHT22;13713;52.552;13.204;2023-04-25T14:57:36;19.80;53.50
25906;DHT22;13713;52.552;13.204;2023-04-25T15:00:02;19.80;53.50
25906;DHT22;13713;52.552;13.204;2023-04-25T15:02:30;19.80;53.50
25906;DHT22;13713;52.552;13.204;2023-04-25T15:04:56;19.80;53.50
25906;DHT22;13713;52.552;13.204;2023-04-25T15:07:22;19.80;53.50
25906;DHT22;13713;52.552;13.204;2023-04-25T15:09:48;19.80;53.50
25906;DHT22;13713;52.552;13.204;2023-04-25T15:12:14;19.80;53.50
25906;DHT22;13713;52.552;13.204;2023-04-25T15:14:40;19.80;53.60
25906;DHT22;13713;52.552;13.204;2023-04-25T15:17:05;19.80;53.60
25906;DHT22;13713;52.552;13.204;2023-04-25T15:19:32;19.80;53.70
25906;DHT22;13713;52.552;13.204;2023-04-25T15:21:58;19.80;53.70
25906;DHT22;13713;52.552;13.204;2023-04-25T15:24:26;19.80;53.70
25906;DHT22;13713;52.552;13.204;2023-04-25T15:26:52;19.80;53.80
25906;DHT22;13713;52.552;13.204;2023-04-25T15:29:18;19.80;53.80
25906;DHT22;13713;52.552;13.204;2023-04-25T15:31:44;19.80;53.80
25906;DHT22;13713;52.552;13.204;2023-04-25T15:34:10;19.70;53.70
25906;DHT22;13713;52.552;13.204;2023-04-25T15:36:36;19.80;53.80